createdAt,value
2019-03-31T00:01:49.976Z,19.80
2019-03-31T00:04:16.116Z,18.17
2019-03-31T00:06:42.136Z,14.13
2019-03-31T00:09:08.271Z,16.05
2019-03-31T00:11:34.396Z,16.32
2019-03-31T00:14:00.562Z,16.52
2019-03-31T00:16:26.679Z,13.35
2019-03-31T00:18:52.817Z,15.68
2019-03-31T00:21:18.933Z,13.98
2019-03-31T00:23:45.029Z,14.40
2019-03-31T00:26:11.162Z,15.65
2019-03-31T00:28:37.292Z,18.60
2019-03-31T00:31:03.936Z,17.07
2019-03-31T00:33:30.056Z,17.17
2019-03-31T00:35:56.181Z,18.30
2019-03-31T00:38:22.319Z,17.05
2019-03-31T00:40:48.352Z,15.25
2019-03-31T00:43:14.478Z,16.20
2019-03-31T00:45:40.662Z,15.90
2019-03-31T00:48:06.784Z,16.32
2019-03-31T00:50:32.900Z,15.28
2019-03-31T00:52:58.931Z,16.57
2019-03-31T00:55:25.058Z,14.45
2019-03-31T00:57:51.219Z,18.27
2019-03-31T01:00:39.239Z,18.25
2019-03-31T01:03:05.993Z,19.75
2019-03-31T01:05:32.549Z,16.42
2019-03-31T01:07:59.100Z,13.95
2019-03-31T01:10:25.633Z,15.00
2019-03-31T01:12:51.954Z,15.55
2019-03-31T01:15:21.795Z,16.17
2019-03-31T01:17:48.121Z,15.10
2019-03-31T01:20:14.266Z,15.32
2019-03-31T01:22:40.388Z,14.23
2019-03-31T01:25:07.733Z,15.43
2019-03-31T01:27:34.073Z,15.18
2019-03-31T01:30:00.320Z,14.10
2019-03-31T01:32:26.435Z,14.47
2019-03-31T01:34:52.567Z,15.83
2019-03-31T01:37:20.329Z,15.15
2019-03-31T01:39:46.672Z,14.20
2019-03-31T01:42:12.791Z,14.28
2019-03-31T01:44:38.827Z,12.58
2019-03-31T01:47:06.869Z,19.17
2019-03-31T01:49:33.141Z,16.27
2019-03-31T01:51:59.302Z,14.25
2019-03-31T01:54:25.494Z,16.27
2019-03-31T01:56:51.588Z,16.67
2019-03-31T01:59:17.752Z,15.48
2019-03-31T02:01:44.285Z,15.10
2019-03-31T02:04:10.444Z,15.43
2019-03-31T02:06:36.617Z,13.38
2019-03-31T02:09:04.642Z,14.23
2019-03-31T02:11:30.784Z,15.08
2019-03-31T02:13:56.915Z,16.20
2019-03-31T02:16:23.142Z,15.70
2019-03-31T02:18:49.318Z,14.58
2019-03-31T02:21:15.440Z,15.50
2019-03-31T02:23:41.515Z,14.30
2019-03-31T02:26:07.652Z,13.13
2019-03-31T02:28:33.810Z,13.18
2019-03-31T02:31:00.347Z,14.60
2019-03-31T02:33:26.425Z,14.43
2019-03-31T02:35:52.569Z,14.25
2019-03-31T02:38:18.813Z,15.03
2019-03-31T02:40:44.982Z,15.40
2019-03-31T02:43:11.116Z,12.98
2019-03-31T02:45:37.251Z,13.85
2019-03-31T02:48:03.476Z,14.75
2019-03-31T02:50:44.952Z,12.47
2019-03-31T02:53:11.073Z,13.58
2019-03-31T02:55:37.849Z,13.18
2019-03-31T02:58:04.468Z,11.78
2019-03-31T03:00:30.817Z,13.68
2019-03-31T03:02:57.450Z,14.33
2019-03-31T03:05:23.923Z,11.53
2019-03-31T03:07:50.518Z,12.68
2019-03-31T03:10:19.027Z,12.55
2019-03-31T03:13:11.581Z,13.85
2019-03-31T03:15:56.163Z,11.30
2019-03-31T03:18:22.282Z,12.78
2019-03-31T03:20:48.351Z,11.38
2019-03-31T03:23:14.476Z,11.75
2019-03-31T03:25:55.227Z,12.25
2019-03-31T03:28:08.718Z,12.10
2019-03-31T03:30:34.873Z,12.98
2019-03-31T03:33:14.515Z,11.95
2019-03-31T03:35:29.148Z,12.18
2019-03-31T03:37:55.325Z,11.53
2019-03-31T03:40:21.404Z,12.28
2019-03-31T03:42:47.549Z,12.68
2019-03-31T03:45:13.707Z,11.70
2019-03-31T03:47:39.845Z,13.05
2019-03-31T03:50:05.962Z,11.55
2019-03-31T03:52:32.043Z,10.65
2019-03-31T03:54:58.162Z,11.93
2019-03-31T03:57:24.334Z,11.10
2019-03-31T03:59:50.359Z,10.60
2019-03-31T04:02:16.481Z,11.38
2019-03-31T04:04:42.721Z,12.53
2019-03-31T04:07:08.843Z,12.00
2019-03-31T04:09:34.976Z,11.45
2019-03-31T04:12:01.107Z,11.88
2019-03-31T04:14:27.234Z,11.70
2019-03-31T04:16:53.270Z,12.53
2019-03-31T04:19:19.400Z,14.38
2019-03-31T04:21:45.533Z,12.47
2019-03-31T04:24:11.575Z,11.63
2019-03-31T04:26:37.702Z,11.20
2019-03-31T04:29:03.843Z,11.60
2019-03-31T04:31:30.013Z,12.03
2019-03-31T04:33:56.150Z,12.37
2019-03-31T04:36:22.276Z,11.93
2019-03-31T04:38:48.405Z,11.35
2019-03-31T04:41:14.538Z,11.22
2019-03-31T04:43:40.664Z,11.88
2019-03-31T04:46:06.779Z,10.78
2019-03-31T04:48:32.907Z,11.68
2019-03-31T04:50:58.959Z,11.50
2019-03-31T04:53:25.106Z,11.55
2019-03-31T04:55:51.277Z,11.57
2019-03-31T04:58:17.426Z,11.28
2019-03-31T05:00:43.554Z,11.85
2019-03-31T05:03:09.598Z,11.20
2019-03-31T05:05:35.728Z,11.57
2019-03-31T05:08:01.747Z,12.05
2019-03-31T05:10:27.925Z,11.35
2019-03-31T05:12:54.046Z,12.43
2019-03-31T05:15:20.115Z,12.28
2019-03-31T05:17:46.146Z,12.00
2019-03-31T05:20:12.317Z,12.85
2019-03-31T05:22:38.476Z,14.83
2019-03-31T05:25:05.003Z,14.20
2019-03-31T05:27:31.215Z,13.40
2019-03-31T05:29:57.346Z,14.55
2019-03-31T05:32:23.510Z,13.95
2019-03-31T05:34:49.643Z,15.50
2019-03-31T05:37:15.809Z,14.63
2019-03-31T05:39:41.948Z,15.53
2019-03-31T05:42:08.066Z,14.95
2019-03-31T05:44:34.185Z,14.55
2019-03-31T05:47:00.321Z,16.25
2019-03-31T05:49:26.477Z,15.50
2019-03-31T05:51:52.593Z,17.60
2019-03-31T05:54:18.646Z,17.30
2019-03-31T05:56:44.764Z,16.65
2019-03-31T05:59:10.927Z,18.05
2019-03-31T06:01:36.958Z,20.10
2019-03-31T06:04:03.178Z,23.15
2019-03-31T06:06:29.362Z,25.17
2019-03-31T06:08:55.611Z,24.43
2019-03-31T06:11:21.659Z,24.55
2019-03-31T06:13:47.894Z,26.45
2019-03-31T06:16:14.025Z,26.10
2019-03-31T06:18:40.146Z,23.25
2019-03-31T06:21:06.294Z,23.57
2019-03-31T06:23:32.473Z,25.57
2019-03-31T06:25:59.153Z,24.67
2019-03-31T06:28:25.289Z,29.23
2019-03-31T06:30:51.510Z,24.05
2019-03-31T06:33:17.657Z,26.05
2019-03-31T06:35:43.823Z,24.27
2019-03-31T06:38:10.053Z,24.60
2019-03-31T06:40:36.214Z,24.77
2019-03-31T06:43:02.426Z,29.00
2019-03-31T06:45:28.668Z,25.90
2019-03-31T06:47:54.903Z,25.05
2019-03-31T06:50:21.157Z,25.43
2019-03-31T06:52:47.336Z,20.85
2019-03-31T06:55:15.396Z,23.47
2019-03-31T06:57:41.651Z,20.02
2019-03-31T07:00:08.153Z,21.57
2019-03-31T07:02:34.269Z,22.30
2019-03-31T07:05:01.802Z,25.52
2019-03-31T07:07:28.263Z,21.30
2019-03-31T07:09:54.522Z,20.90
2019-03-31T07:12:20.769Z,20.72
2019-03-31T07:14:47.071Z,20.15
2019-03-31T07:17:13.360Z,21.12
2019-03-31T07:19:39.601Z,20.08
2019-03-31T07:22:05.720Z,19.77
2019-03-31T07:24:31.980Z,20.77
2019-03-31T07:26:58.020Z,19.70
2019-03-31T07:29:24.076Z,19.77
2019-03-31T07:31:50.414Z,18.95
2019-03-31T07:34:16.638Z,17.65
2019-03-31T07:36:42.760Z,16.87
2019-03-31T07:39:09.316Z,16.73
2019-03-31T07:41:35.604Z,17.00
2019-03-31T07:44:01.849Z,16.50
2019-03-31T07:46:28.092Z,15.35
2019-03-31T07:48:54.244Z,16.97
2019-03-31T07:51:20.384Z,14.80
2019-03-31T07:53:46.615Z,15.85
2019-03-31T07:56:16.139Z,15.23
2019-03-31T08:01:08.258Z,14.25
2019-03-31T08:03:34.505Z,13.70
2019-03-31T08:06:00.630Z,13.35
2019-03-31T08:08:26.897Z,13.68
2019-03-31T08:10:53.019Z,11.88
2019-03-31T08:13:19.146Z,12.47
2019-03-31T08:15:45.390Z,11.68
2019-03-31T08:18:11.558Z,11.12
2019-03-31T08:20:37.738Z,12.28
2019-03-31T08:23:09.358Z,13.13
2019-03-31T08:25:35.515Z,12.00
2019-03-31T08:28:05.026Z,11.48
2019-03-31T08:30:31.112Z,10.95
2019-03-31T08:32:57.272Z,11.43
2019-03-31T08:35:23.494Z,12.90
2019-03-31T08:37:49.649Z,12.98
2019-03-31T08:40:18.392Z,11.08
2019-03-31T08:42:44.511Z,10.55
2019-03-31T08:45:10.735Z,10.00
2019-03-31T08:47:36.863Z,10.43
2019-03-31T08:50:05.346Z,10.08
2019-03-31T08:52:31.454Z,9.83
2019-03-31T08:54:57.600Z,10.00
2019-03-31T08:57:23.723Z,9.20
2019-03-31T08:59:49.786Z,9.75
2019-03-31T09:02:23.488Z,9.85
2019-03-31T09:04:49.527Z,8.45
2019-03-31T09:07:15.680Z,8.83
2019-03-31T09:09:41.807Z,8.15
2019-03-31T09:12:07.988Z,8.53
2019-03-31T09:14:34.157Z,7.10
2019-03-31T09:17:00.271Z,7.33
2019-03-31T09:19:26.496Z,10.10
2019-03-31T09:21:53.735Z,7.50
2019-03-31T09:24:19.872Z,7.17
2019-03-31T09:26:46.034Z,8.10
2019-03-31T09:29:12.182Z,8.55
2019-03-31T09:31:38.302Z,7.78
2019-03-31T09:34:04.488Z,8.28
2019-03-31T09:36:30.631Z,9.15
2019-03-31T09:38:56.774Z,7.22
2019-03-31T09:41:22.905Z,7.70
2019-03-31T09:43:49.033Z,8.38
2019-03-31T09:46:15.147Z,7.65
2019-03-31T09:48:41.274Z,7.55
2019-03-31T09:51:07.415Z,8.10
2019-03-31T09:53:33.537Z,7.37
2019-03-31T09:55:59.671Z,7.90
2019-03-31T09:58:25.816Z,7.00
2019-03-31T10:00:51.944Z,7.08
2019-03-31T10:03:18.379Z,7.40
2019-03-31T10:05:47.686Z,6.45
2019-03-31T10:08:12.688Z,6.80
2019-03-31T10:10:39.175Z,6.33
2019-03-31T10:13:05.287Z,6.90
2019-03-31T10:15:31.563Z,6.00
2019-03-31T10:17:57.748Z,6.47
2019-03-31T10:20:23.936Z,5.97
2019-03-31T10:22:50.071Z,7.00
2019-03-31T10:25:16.227Z,7.20
2019-03-31T10:27:42.469Z,6.97
2019-03-31T10:30:09.991Z,6.72
2019-03-31T10:32:36.246Z,6.78
2019-03-31T10:35:05.029Z,6.65
2019-03-31T10:37:31.194Z,6.58
2019-03-31T10:39:57.339Z,6.67
2019-03-31T10:42:23.579Z,6.10
2019-03-31T10:44:49.711Z,6.20
2019-03-31T10:47:15.860Z,6.87
2019-03-31T10:49:47.200Z,6.87
2019-03-31T10:52:13.304Z,6.35
2019-03-31T10:54:39.901Z,6.42
2019-03-31T10:57:06.059Z,6.25
2019-03-31T10:59:32.241Z,6.22
2019-03-31T11:01:58.440Z,5.72
2019-03-31T11:04:26.880Z,5.85
2019-03-31T11:06:59.619Z,6.78
2019-03-31T11:09:23.873Z,6.85
2019-03-31T11:11:50.017Z,4.97
2019-03-31T11:14:16.317Z,6.05
2019-03-31T11:16:49.321Z,5.55
2019-03-31T11:19:19.757Z,4.92
2019-03-31T11:24:26.532Z,6.53
2019-03-31T11:26:52.689Z,5.55
2019-03-31T11:29:18.914Z,4.95
2019-03-31T11:31:45.089Z,6.53
2019-03-31T11:34:11.235Z,6.40
2019-03-31T11:36:37.169Z,6.40
2019-03-31T11:39:05.140Z,6.55
2019-03-31T11:41:31.172Z,5.72
2019-03-31T11:43:57.425Z,7.33
2019-03-31T11:46:23.534Z,7.12
2019-03-31T11:48:49.655Z,7.53
2019-03-31T11:51:15.839Z,8.15
2019-03-31T11:53:47.099Z,7.40
2019-03-31T11:56:13.366Z,7.00
2019-03-31T11:58:39.605Z,7.20
2019-03-31T12:01:05.844Z,8.48
2019-03-31T12:03:32.074Z,7.37
2019-03-31T12:05:58.188Z,7.60
2019-03-31T12:08:24.395Z,7.42
2019-03-31T12:10:50.545Z,6.67
2019-03-31T12:13:16.663Z,7.33
2019-03-31T12:15:42.786Z,7.00
2019-03-31T12:18:08.922Z,6.90
2019-03-31T12:20:35.143Z,8.38
2019-03-31T12:23:01.160Z,6.90
2019-03-31T12:25:27.337Z,7.90
2019-03-31T12:27:55.585Z,6.90
2019-03-31T12:30:27.995Z,7.25
2019-03-31T12:32:55.151Z,7.47
2019-03-31T12:35:21.289Z,8.70
2019-03-31T12:37:47.529Z,8.35
2019-03-31T12:40:17.252Z,8.90
2019-03-31T12:42:43.388Z,8.00
2019-03-31T12:45:09.453Z,9.35
2019-03-31T12:47:35.571Z,8.48
2019-03-31T12:50:01.812Z,8.13
2019-03-31T12:52:27.941Z,9.85
2019-03-31T12:54:54.168Z,9.15
2019-03-31T12:57:20.111Z,8.53
2019-03-31T12:59:46.217Z,8.65
2019-03-31T13:02:12.412Z,8.83
2019-03-31T13:04:38.533Z,8.20
2019-03-31T13:07:04.780Z,8.88
2019-03-31T13:09:30.938Z,8.88
2019-03-31T13:11:57.102Z,8.48
2019-03-31T13:14:23.281Z,7.65
2019-03-31T13:16:49.399Z,8.70
2019-03-31T13:19:15.511Z,8.73
2019-03-31T13:21:41.695Z,9.20
2019-03-31T13:24:07.809Z,9.30
2019-03-31T13:26:33.965Z,8.20
2019-03-31T13:29:00.094Z,8.28
2019-03-31T13:31:26.160Z,7.90
2019-03-31T13:33:52.432Z,9.70
2019-03-31T13:36:18.613Z,8.98
2019-03-31T13:38:44.775Z,9.30
2019-03-31T13:41:10.942Z,8.10
2019-03-31T13:43:37.094Z,8.40
2019-03-31T13:46:03.225Z,10.70
2019-03-31T13:48:29.594Z,8.60
2019-03-31T13:50:57.603Z,8.88
2019-03-31T13:53:23.757Z,11.80
2019-03-31T13:55:49.890Z,8.93
2019-03-31T13:58:18.561Z,7.85
2019-03-31T14:00:45.156Z,9.18
2019-03-31T14:03:11.368Z,8.35
2019-03-31T14:05:37.503Z,7.50
2019-03-31T14:08:03.966Z,8.53
2019-03-31T14:10:30.074Z,7.50
2019-03-31T14:12:56.254Z,7.92
2019-03-31T14:15:22.502Z,8.00
2019-03-31T14:17:48.668Z,7.53
2019-03-31T14:20:14.908Z,8.68
2019-03-31T14:22:42.338Z,9.45
2019-03-31T14:25:08.485Z,7.72
2019-03-31T14:27:34.655Z,8.48
2019-03-31T14:30:06.509Z,6.87
2019-03-31T14:32:32.541Z,8.70
2019-03-31T14:34:58.707Z,7.17
2019-03-31T14:37:24.862Z,6.95
2019-03-31T14:39:51.109Z,7.78
2019-03-31T14:42:17.266Z,8.68
2019-03-31T14:44:44.303Z,9.28
2019-03-31T14:47:10.609Z,7.30
2019-03-31T14:49:36.675Z,9.85
2019-03-31T14:52:02.845Z,10.65
2019-03-31T14:54:28.870Z,8.45
2019-03-31T14:56:55.015Z,7.92
2019-03-31T14:59:21.152Z,7.78
2019-03-31T15:01:47.436Z,7.15
2019-03-31T15:04:13.584Z,9.43
2019-03-31T15:06:39.885Z,8.30
2019-03-31T15:09:07.074Z,9.18
2019-03-31T15:11:33.111Z,8.23
2019-03-31T15:13:59.263Z,6.83
2019-03-31T15:16:28.938Z,6.75
2019-03-31T15:18:54.967Z,8.13
2019-03-31T15:21:21.142Z,8.48
2019-03-31T15:23:47.371Z,7.08
2019-03-31T15:26:13.598Z,9.18
2019-03-31T15:28:39.858Z,8.90
2019-03-31T15:31:06.119Z,8.05
2019-03-31T15:33:32.469Z,7.28
2019-03-31T15:35:58.636Z,7.62
2019-03-31T15:38:24.860Z,8.63
2019-03-31T15:40:51.151Z,8.38
2019-03-31T15:43:17.311Z,8.73
2019-03-31T15:45:43.535Z,8.90
2019-03-31T15:48:09.678Z,7.55
2019-03-31T15:50:36.374Z,8.90
2019-03-31T15:53:02.668Z,10.18
2019-03-31T15:55:28.776Z,8.88
2019-03-31T15:57:55.014Z,15.03
2019-03-31T16:00:21.244Z,11.63
2019-03-31T16:02:47.507Z,12.58
2019-03-31T16:05:13.630Z,10.30
2019-03-31T16:07:39.691Z,10.48
2019-03-31T16:10:05.965Z,9.63
2019-03-31T16:12:32.122Z,11.05
2019-03-31T16:14:58.374Z,11.20
2019-03-31T16:17:24.665Z,10.65
2019-03-31T16:19:53.799Z,15.83
2019-03-31T16:22:20.067Z,12.80
2019-03-31T16:24:48.155Z,11.70
2019-03-31T16:27:14.446Z,10.40
2019-03-31T16:29:40.581Z,10.70
2019-03-31T16:32:06.763Z,13.05
2019-03-31T16:34:32.885Z,13.05
2019-03-31T16:36:59.013Z,12.53
2019-03-31T16:39:36.880Z,12.50
2019-03-31T16:41:53.470Z,13.22
2019-03-31T16:44:19.766Z,11.08
2019-03-31T16:46:46.084Z,9.00
2019-03-31T16:49:12.316Z,9.60
2019-03-31T16:51:38.591Z,11.57
2019-03-31T16:54:05.100Z,9.20
2019-03-31T16:56:31.354Z,11.55
2019-03-31T16:58:57.501Z,11.40
2019-03-31T17:01:23.637Z,11.93
2019-03-31T17:03:49.754Z,8.35
2019-03-31T17:06:15.907Z,8.75
2019-03-31T17:08:42.074Z,8.83
2019-03-31T17:11:09.181Z,8.23
2019-03-31T17:13:35.330Z,8.78
2019-03-31T17:16:01.591Z,10.03
2019-03-31T17:18:27.714Z,9.78
2019-03-31T17:20:53.890Z,12.37
2019-03-31T17:23:20.175Z,9.40
2019-03-31T17:25:46.309Z,9.40
2019-03-31T17:28:12.400Z,13.30
2019-03-31T17:30:38.652Z,12.70
2019-03-31T17:33:04.949Z,15.00
2019-03-31T17:35:31.186Z,19.12
2019-03-31T17:37:59.629Z,15.78
2019-03-31T17:40:25.921Z,13.70
2019-03-31T17:42:52.217Z,14.55
2019-03-31T17:45:18.495Z,24.25
2019-03-31T17:47:44.722Z,22.60
2019-03-31T17:50:11.193Z,21.70
2019-03-31T17:52:37.434Z,23.40
2019-03-31T17:55:04.727Z,21.97
2019-03-31T17:57:31.023Z,21.37
2019-03-31T17:59:57.298Z,16.10
2019-03-31T18:02:23.578Z,13.40
2019-03-31T18:04:51.898Z,13.05
2019-03-31T18:07:18.111Z,11.75
2019-03-31T18:09:44.281Z,11.65
2019-03-31T18:12:10.525Z,10.15
2019-03-31T18:14:38.505Z,11.15
2019-03-31T18:17:04.755Z,18.92
2019-03-31T18:19:30.875Z,16.65
2019-03-31T18:21:57.050Z,12.98
2019-03-31T18:24:23.189Z,22.55
2019-03-31T18:26:49.336Z,18.55
2019-03-31T18:29:16.034Z,10.43
2019-03-31T18:31:42.200Z,15.10
2019-03-31T18:34:08.343Z,20.12
2019-03-31T18:36:36.817Z,19.48
2019-03-31T18:39:05.344Z,16.48
2019-03-31T18:41:31.484Z,19.37
2019-03-31T18:43:57.642Z,16.95
2019-03-31T18:46:23.771Z,13.78
2019-03-31T18:48:49.892Z,14.90
2019-03-31T18:51:16.035Z,27.75
2019-03-31T18:54:02.051Z,17.40
2019-03-31T19:13:20.435Z,10.58
2019-03-31T19:15:51.104Z,10.68
2019-03-31T19:21:11.014Z,15.45
2019-03-31T19:23:56.683Z,14.05
2019-03-31T19:26:27.518Z,13.08
2019-03-31T19:29:10.730Z,10.98
2019-03-31T19:31:41.604Z,11.00
2019-03-31T19:34:09.612Z,9.08
2019-03-31T19:36:40.519Z,10.58
2019-03-31T19:39:24.561Z,9.65
2019-03-31T19:44:35.954Z,21.87
2019-03-31T19:47:06.548Z,9.83
2019-03-31T19:49:34.623Z,18.20
2019-03-31T19:52:06.208Z,16.60
2019-03-31T19:54:35.522Z,15.40
2019-03-31T20:00:02.565Z,12.93
2019-03-31T20:02:30.610Z,11.55
2019-03-31T20:04:58.643Z,14.10
2019-03-31T20:07:29.531Z,26.37
2019-03-31T20:10:14.435Z,16.82
2019-03-31T20:12:59.216Z,15.00
2019-03-31T20:15:29.762Z,17.12
2019-03-31T20:18:14.164Z,17.80
2019-03-31T20:20:44.870Z,50.12
2019-03-31T20:23:29.637Z,46.80
2019-03-31T20:28:56.763Z,25.88
2019-03-31T20:31:33.569Z,21.70
2019-03-31T20:36:50.473Z,17.27
2019-03-31T20:39:18.571Z,15.60
2019-03-31T20:44:44.355Z,20.80
2019-03-31T20:47:10.505Z,18.90
2019-03-31T20:49:36.762Z,18.05
2019-03-31T20:52:03.009Z,20.43
2019-03-31T20:54:32.797Z,21.20
2019-03-31T20:56:58.299Z,21.10
2019-03-31T20:59:24.467Z,20.90
2019-03-31T21:01:53.243Z,22.58
2019-03-31T21:04:19.340Z,20.97
2019-03-31T21:06:45.564Z,21.25
2019-03-31T21:09:11.705Z,21.12
2019-03-31T21:11:37.929Z,22.85
2019-03-31T21:14:04.055Z,22.75
2019-03-31T21:16:30.310Z,23.32
2019-03-31T21:18:56.453Z,23.62
2019-03-31T21:21:22.750Z,22.37
2019-03-31T21:23:48.870Z,21.50
2019-03-31T21:26:15.153Z,23.80
2019-03-31T21:28:41.445Z,23.55
2019-03-31T21:31:07.705Z,23.90
2019-03-31T21:33:33.860Z,23.67
2019-03-31T21:36:00.096Z,21.20
2019-03-31T21:38:26.261Z,21.87
2019-03-31T21:40:52.502Z,21.23
2019-03-31T21:43:18.785Z,23.83
2019-03-31T21:45:45.305Z,22.75
2019-03-31T21:48:11.432Z,23.32
2019-03-31T21:50:38.039Z,21.75
2019-03-31T21:53:04.158Z,23.10
2019-03-31T21:55:30.296Z,21.12
2019-03-31T21:57:56.466Z,22.70
2019-03-31T22:00:27.024Z,21.62
2019-03-31T22:02:53.144Z,20.88
2019-03-31T22:05:19.269Z,23.00
2019-03-31T22:07:45.408Z,22.77
2019-03-31T22:10:11.548Z,22.55
2019-03-31T22:12:37.666Z,21.45
2019-03-31T22:15:04.801Z,22.70
2019-03-31T22:17:30.946Z,24.25
2019-03-31T22:19:57.184Z,23.40
2019-03-31T22:22:23.325Z,24.45
2019-03-31T22:24:49.437Z,23.15
2019-03-31T22:27:15.667Z,22.60
2019-03-31T22:29:41.793Z,24.15
2019-03-31T22:32:07.927Z,21.87
2019-03-31T22:34:34.079Z,22.10
2019-03-31T22:37:00.201Z,21.95
2019-03-31T22:39:26.334Z,22.13
2019-03-31T22:41:52.458Z,24.57
2019-03-31T22:44:18.515Z,23.73
2019-03-31T22:46:54.139Z,22.48
2019-03-31T22:49:12.735Z,21.70
2019-03-31T22:51:38.874Z,23.52
2019-03-31T22:54:04.992Z,24.12
2019-03-31T22:56:31.119Z,23.90
2019-03-31T22:58:57.278Z,21.37
2019-03-31T23:01:23.488Z,23.38
2019-03-31T23:03:49.645Z,23.27
2019-03-31T23:06:15.785Z,22.85
2019-03-31T23:08:41.899Z,23.83
2019-03-31T23:11:08.057Z,23.92
2019-03-31T23:13:34.083Z,23.15
2019-03-31T23:16:00.216Z,23.27
2019-03-31T23:18:26.359Z,21.12
2019-03-31T23:20:52.524Z,20.37
2019-03-31T23:23:18.551Z,24.23
2019-03-31T23:25:44.728Z,23.40
2019-03-31T23:28:10.853Z,21.93
2019-03-31T23:30:37.103Z,23.27
2019-03-31T23:33:03.143Z,20.97
2019-03-31T23:35:29.184Z,23.20
2019-03-31T23:37:58.125Z,21.40
2019-03-31T23:40:24.239Z,22.73
2019-03-31T23:42:50.363Z,21.48
2019-03-31T23:45:16.419Z,20.82
2019-03-31T23:47:42.576Z,19.90
2019-03-31T23:50:08.997Z,20.25
2019-03-31T23:52:35.319Z,18.92
2019-03-31T23:55:01.350Z,18.25
2019-03-31T23:57:40.043Z,18.30
